Time;durP1;ratioP1;P1;durP2;ratioP2;P2;SDS_P1;SDS_P2;PMS_P1;PMS_P2;Temp;Humidity;BMP_temperature;BMP_pressure;BME280_temperature;BME280_humidity;BME280_pressure;Samples;Min_cycle;Max_cycle;Signal;HPM_P1;HPM_P2
2021/11/05 00:01:08;;;;;;;;;8.33;5.00;;;;;10.72;74.06;101605.63;5030891;28;47314;-73
2021/11/05 00:03:33;;;;;;;;;7.33;5.00;;;;;10.73;73.95;101607.41;5016123;28;45413;-73
2021/11/05 00:05:59;;;;;;;;;6.33;4.67;;;;;10.75;73.88;101612.72;5015289;28;52231;-73
2021/11/05 00:08:25;;;;;;;;;4.00;4.00;;;;;10.77;73.88;101613.66;5015975;28;45647;-73
2021/11/05 00:10:51;;;;;;;;;7.33;4.00;;;;;10.80;73.74;101624.28;5015598;28;45821;-73
2021/11/05 00:13:16;;;;;;;;;5.33;4.00;;;;;10.83;73.87;101615.53;5015717;28;45364;-73
2021/11/05 00:15:42;;;;;;;;;7.00;4.67;;;;;10.88;73.83;101624.47;5015344;28;45849;-73
2021/11/05 00:18:07;;;;;;;;;7.00;5.00;;;;;10.92;73.92;101621.94;5016065;28;45254;-73
2021/11/05 00:20:33;;;;;;;;;6.33;6.33;;;;;10.95;73.83;101624.63;5018925;28;48009;-73
2021/11/05 00:22:58;;;;;;;;;9.00;5.00;;;;;10.99;73.76;101617.66;5018967;28;45194;-73
2021/11/05 00:25:24;;;;;;;;;9.00;4.33;;;;;11.02;73.85;101612.44;5019495;28;45319;-73
2021/11/05 00:27:49;;;;;;;;;4.67;4.67;;;;;10.99;73.71;101607.09;5017193;28;45250;-74
2021/11/05 00:30:15;;;;;;;;;7.00;4.00;;;;;11.04;73.41;101620.41;5018902;28;46604;-74
2021/11/05 00:32:40;;;;;;;;;7.67;5.00;;;;;11.00;73.52;101612.41;5018925;28;45267;-73
2021/11/05 00:35:06;;;;;;;;;4.67;4.67;;;;;10.99;73.48;101609.75;5018781;28;45858;-73
2021/11/05 00:37:31;;;;;;;;;7.67;4.33;;;;;10.97;73.30;101620.28;5019030;28;45381;-74
2021/11/05 00:39:57;;;;;;;;;8.00;7.00;;;;;10.92;73.36;101619.28;5018835;28;46335;-73
2021/11/05 00:42:22;;;;;;;;;4.00;4.00;;;;;10.92;73.38;101629.84;5018908;28;45239;-73
2021/11/05 00:44:48;;;;;;;;;4.00;3.00;;;;;10.87;73.41;101628.88;5018069;28;54877;-73
2021/11/05 00:47:15;;;;;;;;;8.33;5.33;;;;;10.80;73.12;101620.75;5018915;28;45259;-73
2021/11/05 00:49:41;;;;;;;;;7.00;4.00;;;;;10.82;73.34;101640.19;5018685;28;46575;-73
2021/11/05 00:52:06;;;;;;;;;7.00;4.00;;;;;10.80;73.60;101626.03;5009990;28;45225;-73
2021/11/05 00:54:32;;;;;;;;;5.33;5.33;;;;;10.74;73.63;101632.06;5018441;28;45329;-73
2021/11/05 00:56:57;;;;;;;;;4.00;4.00;;;;;10.78;73.54;101639.22;5018521;28;45326;-73
2021/11/05 00:59:22;;;;;;;;;9.00;4.67;;;;;10.77;73.48;101650.66;5017666;28;62363;-73
2021/11/05 01:01:48;;;;;;;;;9.00;4.00;;;;;10.74;73.37;101640.00;5017639;28;62848;-73
2021/11/05 01:04:13;;;;;;;;;6.00;4.33;;;;;10.73;73.34;101644.38;5018048;28;55127;-73
2021/11/05 01:06:39;;;;;;;;;4.67;4.00;;;;;10.77;73.59;101653.28;5017703;28;49709;-73
2021/11/05 01:09:04;;;;;;;;;4.00;3.00;;;;;10.75;73.53;101657.63;5017849;28;46476;-74
2021/11/05 01:11:30;;;;;;;;;5.67;4.33;;;;;10.74;73.37;101662.00;5018358;28;45398;-73
2021/11/05 01:13:55;;;;;;;;;5.00;4.00;;;;;10.74;73.45;101667.28;5018246;28;45318;-73
2021/11/05 01:16:20;;;;;;;;;4.33;3.00;;;;;10.74;73.50;101664.66;5018415;28;45220;-73
2021/11/05 01:18:47;;;;;;;;;3.00;3.00;;;;;10.74;73.49;101664.66;5017839;28;57352;-73
2021/11/05 01:21:12;;;;;;;;;5.33;5.33;;;;;10.71;73.59;101663.72;5017885;28;45430;-73
2021/11/05 01:23:38;;;;;;;;;4.00;4.00;;;;;10.73;73.24;101668.16;5018461;28;45287;-74
2021/11/05 01:26:03;;;;;;;;;4.00;3.00;;;;;10.78;73.36;101677.94;5017826;28;54893;-73
2021/11/05 01:28:54;;;;;;;;;5.33;5.33;;;;;10.78;73.32;101684.13;5017935;28;49114;-73
2021/11/05 01:31:21;;;;;;;;;5.00;3.33;;;;;10.79;73.45;101679.72;5015133;28;45370;-73
2021/11/05 01:33:47;;;;;;;;;6.67;3.00;;;;;10.77;73.22;101687.63;5018156;28;45319;-73
2021/11/05 01:36:12;;;;;;;;;8.00;4.00;;;;;10.76;73.21;101683.22;5017882;28;45575;-73
2021/11/05 01:38:38;;;;;;;;;8.67;5.00;;;;;10.78;73.24;101691.16;5017296;28;46256;-73
2021/11/05 01:41:03;;;;;;;;;8.00;7.00;;;;;10.74;73.36;101684.91;5017797;28;45460;-73
2021/11/05 01:43:28;;;;;;;;;6.67;4.00;;;;;10.78;73.21;101692.03;5017023;28;56806;-73
2021/11/05 01:45:54;;;;;;;;;9.00;6.00;;;;;10.79;73.27;101688.53;5017424;28;51247;-73
2021/11/05 01:48:22;;;;;;;;;10.33;4.00;;;;;10.75;73.15;101686.66;5016696;28;46425;-73
2021/11/05 01:50:47;;;;;;;;;12.33;4.00;;;;;10.78;73.30;101684.13;5017848;28;45330;-73
2021/11/05 01:53:13;;;;;;;;;5.33;3.67;;;;;10.78;73.37;101688.50;5018110;28;45450;-73
2021/11/05 01:55:38;;;;;;;;;12.67;4.00;;;;;10.79;73.17;101692.94;5017844;28;45178;-74
2021/11/05 01:58:04;;;;;;;;;4.00;4.00;;;;;10.79;73.16;101698.22;5017375;28;47226;-73
2021/11/05 02:00:30;;;;;;;;;6.00;4.00;;;;;10.78;73.12;101705.25;5017042;28;49742;-73
2021/11/05 02:02:55;;;;;;;;;5.33;4.00;;;;;10.73;73.32;101697.22;5017709;28;45472;-73
2021/11/05 02:05:24;;;;;;;;;3.33;3.33;;;;;10.73;72.98;101704.25;5017312;28;48443;-74
2021/11/05 02:07:52;;;;;;;;;2.67;2.67;;;;;10.76;73.06;101706.97;5004160;28;46520;-73
2021/11/05 02:10:19;;;;;;;;;3.33;3.33;;;;;10.73;73.07;101707.78;5016797;28;45620;-73
2021/11/05 02:12:45;;;;;;;;;2.33;2.33;;;;;10.64;72.97;101701.38;5017497;28;45235;-73
2021/11/05 02:15:10;;;;;;;;;5.00;4.00;;;;;10.62;73.00;101705.75;5017122;28;45557;-74
2021/11/05 02:17:36;;;;;;;;;8.67;4.00;;;;;10.59;73.05;101710.94;5017401;28;46646;-73
2021/11/05 02:20:02;;;;;;;;;3.00;3.00;;;;;10.54;72.97;101708.16;5016946;28;45475;-73
2021/11/05 02:22:28;;;;;;;;;6.33;2.00;;;;;10.51;73.15;101715.16;5017205;28;45588;-73
2021/11/05 02:24:54;;;;;;;;;5.33;3.00;;;;;10.37;73.30;101685.72;5016009;28;45285;-73
2021/11/05 02:27:20;;;;;;;;;5.33;3.33;;;;;10.33;73.38;101687.38;5016697;28;47265;-73
2021/11/05 02:29:45;;;;;;;;;4.00;3.00;;;;;10.47;73.34;101717.69;5016813;28;45275;-73
2021/11/05 02:32:12;;;;;;;;;3.00;3.00;;;;;10.51;73.42;101717.78;5017352;28;45409;-73
2021/11/05 02:34:37;;;;;;;;;6.33;3.33;;;;;10.54;73.33;101723.13;5004324;28;45644;-73
2021/11/05 02:37:03;;;;;;;;;2.67;2.00;;;;;10.52;73.16;101714.28;5016980;28;45231;-73
2021/11/05 02:39:30;;;;;;;;;3.67;3.00;;;;;10.54;73.16;101729.28;5016656;28;45200;-73
2021/11/05 02:41:56;;;;;;;;;8.33;4.00;;;;;10.52;72.91;101733.66;5015102;28;45239;-73
2021/11/05 02:44:21;;;;;;;;;4.00;3.00;;;;;10.51;72.94;101733.63;5030309;28;45372;-73
2021/11/05 02:46:47;;;;;;;;;5.00;3.00;;;;;10.46;73.03;101734.41;5017201;28;46376;-73
2021/11/05 02:49:16;;;;;;;;;6.00;3.00;;;;;10.47;72.92;101736.16;5016810;28;45514;-73
2021/11/05 02:51:42;;;;;;;;;4.00;3.33;;;;;10.37;72.95;101720.94;5016917;28;45342;-73
2021/11/05 02:54:07;;;;;;;;;3.00;3.00;;;;;10.41;72.71;101727.22;5016834;28;45705;-73
2021/11/05 02:56:33;;;;;;;;;3.33;2.00;;;;;10.44;72.73;101736.13;5016712;28;47047;-73
2021/11/05 02:58:59;;;;;;;;;3.00;3.00;;;;;10.45;72.94;101742.28;5016606;28;45330;-73
2021/11/05 03:01:24;;;;;;;;;7.33;3.67;;;;;10.47;72.83;101743.19;5016789;28;45489;-73
2021/11/05 03:03:50;;;;;;;;;7.00;3.33;;;;;10.49;72.88;101747.69;5016472;28;45275;-73
2021/11/05 03:06:15;;;;;;;;;4.00;2.33;;;;;10.48;72.92;101737.94;5016283;28;47318;-73
2021/11/05 03:08:40;;;;;;;;;3.00;3.00;;;;;10.54;72.93;101753.06;5015777;28;57825;-73
2021/11/05 03:11:11;;;;;;;;;7.33;3.00;;;;;10.57;72.69;101757.53;5016715;28;45833;-73
2021/11/05 03:13:37;;;;;;;;;6.00;4.00;;;;;10.60;72.59;101754.97;5017027;28;45494;-73
2021/11/05 03:16:03;;;;;;;;;4.33;2.67;;;;;10.61;72.71;101759.41;5011882;28;46846;-73
2021/11/05 03:18:31;;;;;;;;;3.00;3.00;;;;;10.62;72.53;101761.19;5016605;28;45413;-74
2021/11/05 03:20:56;;;;;;;;;5.00;2.67;;;;;10.64;72.82;101768.28;5015970;28;45547;-74
2021/11/05 03:23:21;;;;;;;;;4.00;2.00;;;;;10.65;72.60;101759.53;5016583;28;45254;-73
2021/11/05 03:25:47;;;;;;;;;2.67;2.67;;;;;10.67;72.61;101770.13;5016115;28;59889;-74
2021/11/05 03:28:12;;;;;;;;;3.67;3.00;;;;;10.69;72.66;101769.31;5017696;28;45474;-73
2021/11/05 03:30:38;;;;;;;;;7.33;3.00;;;;;10.69;72.51;101769.31;5021069;28;54195;-73
2021/11/05 03:33:03;;;;;;;;;4.00;2.67;;;;;10.70;72.36;101775.47;5016368;28;45329;-73
2021/11/05 03:35:29;;;;;;;;;4.00;3.00;;;;;10.71;72.42;101778.19;5016335;28;46408;-73
2021/11/05 03:37:54;;;;;;;;;4.00;3.33;;;;;10.68;72.38;101770.16;5015461;28;53823;-73
2021/11/05 03:40:20;;;;;;;;;6.00;4.00;;;;;10.72;72.31;101779.06;5015678;28;54019;-74
2021/11/05 03:42:48;;;;;;;;;4.00;4.00;;;;;10.71;72.21;101785.22;5016421;28;45547;-73
2021/11/05 03:45:14;;;;;;;;;4.33;2.00;;;;;10.68;72.16;101785.13;5008564;28;47421;-73
2021/11/05 03:47:39;;;;;;;;;4.33;3.00;;;;;10.69;72.14;101800.09;5012384;28;45787;-74
2021/11/05 03:50:05;;;;;;;;;3.33;3.33;;;;;10.69;72.24;101802.75;5015671;28;54427;-73
2021/11/05 03:52:30;;;;;;;;;2.67;2.00;;;;;10.72;72.16;101808.13;5014897;28;45510;-73
2021/11/05 03:54:55;;;;;;;;;3.00;2.67;;;;;10.70;72.29;101807.16;5018299;28;59054;-73
2021/11/05 03:57:21;;;;;;;;;5.00;3.00;;;;;10.68;72.40;101808.88;5019316;28;47096;-73
2021/11/05 03:59:46;;;;;;;;;3.67;3.67;;;;;10.72;72.29;101811.66;5019432;28;45520;-73
2021/11/05 04:02:11;;;;;;;;;4.00;2.33;;;;;10.71;72.32;101815.16;5019020;28;50557;-73
2021/11/05 04:04:37;;;;;;;;;3.33;2.00;;;;;10.71;72.31;101815.16;5019279;28;47509;-73
2021/11/05 04:07:02;;;;;;;;;8.33;4.00;;;;;10.72;72.31;101818.69;5018595;28;57567;-73
2021/11/05 04:09:28;;;;;;;;;4.00;3.00;;;;;10.72;72.27;101827.50;5019633;28;45373;-73
2021/11/05 04:11:53;;;;;;;;;6.00;4.00;;;;;10.74;72.26;101830.19;5019426;28;45700;-73
2021/11/05 04:14:19;;;;;;;;;4.00;2.00;;;;;10.75;72.17;101838.13;5018584;28;56182;-73
2021/11/05 04:16:44;;;;;;;;;7.33;3.00;;;;;10.76;72.26;101836.41;5017094;28;45427;-73
2021/11/05 04:19:09;;;;;;;;;3.67;3.33;;;;;10.79;72.31;101840.88;5019250;28;45277;-73
2021/11/05 04:21:35;;;;;;;;;5.33;3.67;;;;;10.75;72.14;101846.06;5018888;28;45512;-73
2021/11/05 04:24:01;;;;;;;;;5.67;3.00;;;;;10.81;72.30;101850.59;5018950;28;47489;-74
2021/11/05 04:26:30;;;;;;;;;3.00;3.00;;;;;10.81;72.23;101853.25;5019378;28;45333;-73
2021/11/05 04:28:56;;;;;;;;;5.67;3.00;;;;;10.78;72.17;101858.47;5019072;28;45347;-73
2021/11/05 04:31:21;;;;;;;;;3.00;3.00;;;;;10.82;72.02;101859.47;5018872;28;49618;-73
2021/11/05 04:33:47;;;;;;;;;4.67;3.33;;;;;10.81;72.14;101865.56;5018961;28;46350;-73
2021/11/05 04:36:12;;;;;;;;;2.67;2.33;;;;;10.79;71.97;101865.53;5018680;28;45454;-74
2021/11/05 04:38:39;;;;;;;;;6.00;3.00;;;;;10.78;71.82;101865.50;5018728;28;45308;-73
2021/11/05 04:41:04;;;;;;;;;3.67;3.67;;;;;10.77;71.99;101869.91;5018860;28;45413;-73
2021/11/05 04:43:29;;;;;;;;;4.00;3.00;;;;;10.73;71.85;101873.31;5018844;28;46214;-73
2021/11/05 04:45:55;;;;;;;;;5.33;2.67;;;;;10.77;71.97;101875.19;5018793;28;45317;-73
2021/11/05 04:48:20;;;;;;;;;5.33;3.00;;;;;10.75;72.37;101872.47;5018517;28;55047;-73
2021/11/05 04:50:46;;;;;;;;;3.00;3.00;;;;;10.77;71.98;101882.22;5018250;28;52508;-73
2021/11/05 04:53:11;;;;;;;;;5.33;4.00;;;;;10.79;72.04;101885.78;5018765;28;47463;-73
2021/11/05 04:55:37;;;;;;;;;6.67;2.00;;;;;10.80;72.03;101900.78;5018797;28;45209;-73
2021/11/05 04:58:02;;;;;;;;;5.67;3.00;;;;;10.80;72.10;101901.66;5019136;28;45225;-74
2021/11/05 05:00:28;;;;;;;;;5.33;3.00;;;;;10.82;72.43;101904.38;5018504;28;45481;-73
2021/11/05 05:02:53;;;;;;;;;7.00;3.33;;;;;10.78;72.29;101898.09;5016988;28;46208;-73
2021/11/05 05:05:19;;;;;;;;;7.00;3.00;;;;;10.82;71.91;101907.00;5018258;28;45350;-74
2021/11/05 05:07:45;;;;;;;;;3.67;3.67;;;;;10.82;71.93;101904.38;5018277;28;45516;-73
2021/11/05 05:10:10;;;;;;;;;3.00;3.00;;;;;10.84;72.18;101906.19;5018472;28;45203;-73
2021/11/05 05:12:36;;;;;;;;;7.00;4.00;;;;;10.82;72.03;101893.81;5018330;28;46498;-73
2021/11/05 05:15:03;;;;;;;;;5.33;3.67;;;;;10.88;71.86;101904.53;5018250;28;45492;-73
2021/11/05 05:17:28;;;;;;;;;6.00;3.67;;;;;10.90;71.80;101916.91;5018164;28;45413;-73
2021/11/05 05:19:53;;;;;;;;;8.00;3.00;;;;;10.88;71.88;101908.06;5017639;28;54228;-73
2021/11/05 05:22:19;;;;;;;;;5.33;4.00;;;;;10.86;71.57;101909.75;5018333;28;47336;-73
2021/11/05 05:24:44;;;;;;;;;4.67;3.33;;;;;10.87;71.66;101910.69;5018155;28;52596;-73
2021/11/05 05:27:09;;;;;;;;;5.00;2.00;;;;;10.85;71.62;101921.19;5018247;28;45306;-73
2021/11/05 05:29:35;;;;;;;;;3.00;2.00;;;;;10.82;71.46;101912.31;5017956;28;45540;-73
2021/11/05 05:32:01;;;;;;;;;7.33;2.67;;;;;10.81;71.64;101919.28;5018294;28;46408;-73
2021/11/05 05:34:26;;;;;;;;;3.67;3.00;;;;;10.81;71.79;101927.22;5017749;28;45440;-73
2021/11/05 05:36:51;;;;;;;;;4.00;2.00;;;;;10.77;71.33;101924.50;5016886;28;45540;-73
2021/11/05 05:39:17;;;;;;;;;2.00;2.00;;;;;10.82;71.58;101931.69;5017182;28;51877;-73
2021/11/05 05:41:43;;;;;;;;;3.00;1.00;;;;;10.82;71.32;101930.78;5018064;28;46731;-73
2021/11/05 05:44:08;;;;;;;;;3.00;1.67;;;;;10.81;71.10;101943.06;5017717;28;45330;-74
2021/11/05 05:46:33;;;;;;;;;7.67;3.00;;;;;10.80;71.22;101937.75;5017865;28;45879;-73
2021/11/05 05:48:59;;;;;;;;;1.00;1.00;;;;;10.78;71.27;101950.03;5017843;28;45709;-73
2021/11/05 05:51:24;;;;;;;;;2.67;2.67;;;;;10.82;71.32;101955.47;5015967;28;61436;-73
2021/11/05 05:53:49;;;;;;;;;4.67;3.00;;;;;10.83;71.27;101951.97;5017553;28;45190;-73
2021/11/05 05:56:15;;;;;;;;;2.33;2.00;;;;;10.85;70.93;101957.28;5017668;28;55474;-74
2021/11/05 05:58:40;;;;;;;;;6.00;1.00;;;;;10.84;71.19;101959.03;5017274;28;50710;-73
2021/11/05 06:01:06;;;;;;;;;4.00;2.67;;;;;10.86;71.09;101964.34;5016836;28;57832;-73
2021/11/05 06:03:31;;;;;;;;;4.00;2.00;;;;;10.87;70.87;101960.88;5017293;28;45337;-73
2021/11/05 06:05:57;;;;;;;;;8.00;4.00;;;;;10.88;71.09;101962.66;5017478;28;45284;-73
2021/11/05 06:08:22;;;;;;;;;4.00;2.67;;;;;10.88;71.00;101968.84;5017400;28;45552;-73
2021/11/05 06:10:48;;;;;;;;;4.00;3.00;;;;;10.90;70.95;101971.50;5016923;28;47221;-73
2021/11/05 06:13:13;;;;;;;;;2.00;2.00;;;;;10.90;70.83;101977.69;5017441;28;45366;-74
2021/11/05 06:15:38;;;;;;;;;3.67;2.33;;;;;10.92;70.96;101978.66;5014364;28;52903;-73
2021/11/05 06:18:04;;;;;;;;;4.33;3.00;;;;;10.93;71.33;101979.53;5014687;28;48643;-73
2021/11/05 06:20:29;;;;;;;;;3.00;3.00;;;;;10.87;71.23;101982.91;5017102;28;46498;-73
2021/11/05 06:22:55;;;;;;;;;2.33;2.33;;;;;10.92;71.03;101983.00;5017581;28;45368;-73
2021/11/05 06:25:20;;;;;;;;;4.00;2.33;;;;;10.89;70.60;101980.31;5016936;28;54402;-73
2021/11/05 06:27:45;;;;;;;;;2.00;2.00;;;;;10.92;70.70;101996.22;5017148;28;45451;-73
2021/11/05 06:30:12;;;;;;;;;4.33;2.00;;;;;10.91;70.68;102000.63;5016641;28;59375;-73
2021/11/05 06:32:37;;;;;;;;;1.67;1.00;;;;;10.91;70.86;101992.69;5016665;28;45533;-73
2021/11/05 06:35:04;;;;;;;;;3.00;2.67;;;;;10.85;70.70;101989.88;5017219;28;45457;-73
2021/11/05 06:37:29;;;;;;;;;6.00;2.00;;;;;10.92;70.70;102013.00;5017149;28;45211;-73
2021/11/05 06:39:54;;;;;;;;;3.00;2.00;;;;;10.91;70.95;102016.47;5016275;28;58012;-73
2021/11/05 06:42:24;;;;;;;;;2.00;2.00;;;;;10.93;71.10;102027.09;5016863;28;45287;-73
2021/11/05 06:44:50;;;;;;;;;4.00;2.00;;;;;10.88;70.95;102020.78;5016637;28;45513;-73
2021/11/05 06:47:16;;;;;;;;;7.33;2.33;;;;;10.89;70.76;102026.13;5017114;28;45376;-74
2021/11/05 06:49:42;;;;;;;;;1.33;1.33;;;;;10.93;70.82;102035.94;5016182;28;61089;-73
2021/11/05 06:52:07;;;;;;;;;2.00;2.00;;;;;10.94;70.88;102037.72;5016862;28;45594;-73
2021/11/05 06:54:34;;;;;;;;;4.67;2.33;;;;;10.94;70.68;102043.00;5016897;28;45219;-73
2021/11/05 06:57:00;;;;;;;;;3.00;3.00;;;;;10.95;70.49;102034.22;5017187;28;45500;-73
2021/11/05 06:59:25;;;;;;;;;8.00;4.00;;;;;10.96;70.41;102054.50;5016419;28;46190;-73
2021/11/05 07:01:51;;;;;;;;;4.00;2.00;;;;;10.95;70.26;102050.06;5016803;28;45621;-73
2021/11/05 07:04:16;;;;;;;;;6.67;2.33;;;;;10.94;70.14;102064.13;5016562;28;48696;-73
2021/11/05 07:06:45;;;;;;;;;7.00;3.00;;;;;10.96;70.42;102080.03;5016702;28;50573;-73
2021/11/05 07:09:16;;;;;;;;;2.00;2.00;;;;;10.98;70.42;102075.69;5010561;28;47343;-73
2021/11/05 07:11:43;;;;;;;;;3.67;2.33;;;;;10.98;70.05;102076.59;5016218;28;45447;-73
2021/11/05 07:14:08;;;;;;;;;4.67;3.33;;;;;10.98;70.07;102076.59;5011236;28;45693;-73
2021/11/05 07:16:34;;;;;;;;;3.33;2.00;;;;;10.98;70.32;102079.25;5032012;28;45487;-73
2021/11/05 07:19:00;;;;;;;;;4.00;2.00;;;;;11.00;70.20;102088.09;5014949;28;47636;-73
2021/11/05 07:21:25;;;;;;;;;4.67;3.00;;;;;10.95;70.06;102072.97;5014472;28;45496;-73
2021/11/05 07:23:51;;;;;;;;;3.00;2.00;;;;;11.02;70.25;102086.41;5016249;28;49507;-73
2021/11/05 07:26:16;;;;;;;;;8.00;3.00;;;;;11.08;70.11;102098.91;5009778;28;45323;-73
2021/11/05 07:28:42;;;;;;;;;3.67;3.00;;;;;11.11;69.97;102103.38;5012333;28;47343;-78
2021/11/05 07:31:07;;;;;;;;;4.00;3.00;;;;;11.11;70.20;102114.84;5018694;28;45217;-76
2021/11/05 07:33:33;;;;;;;;;2.33;2.33;;;;;11.13;69.96;102110.50;5018866;28;45509;-75
2021/11/05 07:35:59;;;;;;;;;5.00;3.33;;;;;11.17;69.98;102119.41;5017627;28;51705;-76
2021/11/05 07:38:24;;;;;;;;;5.33;2.67;;;;;11.18;69.92;102126.47;5017572;28;48231;-75
2021/11/05 07:40:50;;;;;;;;;2.00;2.00;;;;;11.15;69.56;102129.06;5019128;28;45271;-75
2021/11/05 07:43:15;;;;;;;;;4.00;2.33;;;;;11.16;69.39;102136.13;5017947;28;45516;-73
2021/11/05 07:45:41;;;;;;;;;2.33;2.33;;;;;11.14;69.47;102153.72;5018914;28;47915;-73
2021/11/05 07:48:06;;;;;;;;;1.00;1.00;;;;;11.11;69.46;102150.97;5013561;28;52412;-72
2021/11/05 07:50:34;;;;;;;;;2.33;2.00;;;;;11.10;69.18;102151.81;5014982;28;45457;-73
2021/11/05 07:53:03;;;;;;;;;4.00;4.00;;;;;11.10;69.35;102144.78;5018254;28;45524;-73
2021/11/05 07:55:29;;;;;;;;;4.00;3.00;;;;;11.13;69.32;102149.25;5020010;28;45622;-73
2021/11/05 07:57:55;;;;;;;;;5.00;2.67;;;;;11.12;69.03;102150.09;5019295;28;47532;-75
2021/11/05 08:00:20;;;;;;;;;6.33;4.67;;;;;11.18;69.09;102164.38;5019344;28;45354;-74
2021/11/05 08:02:46;;;;;;;;;2.33;2.33;;;;;11.19;69.05;102167.97;5019415;28;56331;-72
2021/11/05 08:05:12;;;;;;;;;1.67;1.67;;;;;11.19;68.55;102170.59;5019564;28;45635;-73
2021/11/05 08:07:38;;;;;;;;;4.00;2.00;;;;;11.18;68.68;102174.06;5019046;28;47336;-73
2021/11/05 08:10:03;;;;;;;;;2.00;2.00;;;;;11.17;68.78;102167.88;5018838;28;45415;-73
2021/11/05 08:12:29;;;;;;;;;2.33;1.00;;;;;11.19;68.93;102181.19;5018768;28;47354;-74
2021/11/05 08:14:54;;;;;;;;;3.67;3.00;;;;;11.20;68.73;102182.97;5012329;28;45631;-73
2021/11/05 08:17:20;;;;;;;;;7.00;3.00;;;;;11.23;68.80;102188.31;5010204;28;46247;-73
2021/11/05 08:19:45;;;;;;;;;2.00;1.67;;;;;11.28;69.21;102186.72;5011805;28;52000;-73
2021/11/05 08:22:11;;;;;;;;;4.00;2.00;;;;;11.33;68.78;102186.84;5013964;28;45480;-73
2021/11/05 08:24:36;;;;;;;;;4.00;4.00;;;;;11.42;68.72;102198.59;5013982;28;45667;-72
2021/11/05 08:27:02;;;;;;;;;4.00;3.33;;;;;11.45;68.56;102193.41;5010298;28;55214;-72
2021/11/05 08:29:27;;;;;;;;;3.33;3.33;;;;;11.48;68.56;102197.88;5013963;28;45603;-73
2021/11/05 08:31:52;;;;;;;;;4.33;2.33;;;;;11.55;68.50;102206.03;5010804;28;45660;-72
2021/11/05 08:34:18;;;;;;;;;5.00;3.00;;;;;11.60;68.52;102203.53;5014783;28;45533;-72
2021/11/05 08:36:43;;;;;;;;;4.67;3.00;;;;;11.63;68.12;102202.72;5015071;28;53276;-73
2021/11/05 08:39:08;;;;;;;;;4.67;3.00;;;;;11.69;68.22;102210.84;5014734;28;51120;-73
2021/11/05 08:41:34;;;;;;;;;3.67;3.00;;;;;11.73;68.25;102213.63;5012997;28;45401;-72
2021/11/05 08:44:00;;;;;;;;;2.33;2.00;;;;;11.74;66.92;102210.13;5014317;28;45508;-73
2021/11/05 08:46:26;;;;;;;;;5.67;2.67;;;;;11.74;67.75;102209.22;5012594;28;46590;-73
2021/11/05 08:48:53;;;;;;;;;5.00;3.00;;;;;11.84;67.61;102224.53;5014989;28;45765;-73
2021/11/05 08:51:19;;;;;;;;;4.67;4.00;;;;;11.83;67.99;102220.13;5006844;28;45473;-73
2021/11/05 08:53:44;;;;;;;;;4.00;3.00;;;;;11.88;67.74;102229.06;5012635;28;45492;-73
2021/11/05 08:56:11;;;;;;;;;4.00;2.00;;;;;11.91;67.39;102231.78;5012749;28;49600;-74
2021/11/05 08:58:37;;;;;;;;;6.00;3.00;;;;;11.91;66.94;102226.50;5011764;28;45567;-72
2021/11/05 09:01:03;;;;;;;;;2.00;2.00;;;;;11.93;67.15;102235.41;5031465;28;51919;-72
2021/11/05 09:03:29;;;;;;;;;3.00;3.00;;;;;11.91;67.12;102239.72;5015424;28;45381;-72
2021/11/05 09:05:54;;;;;;;;;4.00;2.67;;;;;11.97;66.71;102242.53;5012413;28;46080;-71
2021/11/05 09:08:19;;;;;;;;;4.33;3.33;;;;;12.00;66.99;102247.03;5010643;28;45498;-74
2021/11/05 09:10:45;;;;;;;;;2.67;2.67;;;;;12.02;67.00;102247.97;5015686;28;53555;-73
2021/11/05 09:13:10;;;;;;;;;2.33;2.33;;;;;12.04;66.32;102246.28;5014731;28;45652;-73
2021/11/05 09:15:36;;;;;;;;;8.00;3.33;;;;;12.08;66.65;102256.06;5008176;28;54097;-73
2021/11/05 09:18:04;;;;;;;;;5.00;4.00;;;;;12.11;66.69;102260.56;5012167;28;45630;-74
2021/11/05 09:20:30;;;;;;;;;6.00;3.00;;;;;12.15;66.42;102259.81;5013269;28;45361;-74
2021/11/05 09:22:55;;;;;;;;;5.00;3.00;;;;;12.15;66.21;102259.81;5013096;28;45855;-74
2021/11/05 09:25:21;;;;;;;;;4.00;2.00;;;;;12.17;66.11;102258.09;5014836;28;46357;-74
2021/11/05 09:27:47;;;;;;;;;5.00;4.00;;;;;12.19;65.67;102269.59;5011773;28;52742;-74
2021/11/05 09:30:13;;;;;;;;;5.33;3.67;;;;;12.23;66.09;102263.56;5009463;28;45555;-71
2021/11/05 09:32:38;;;;;;;;;4.00;2.33;;;;;12.23;65.37;102267.09;5011101;28;45888;-74
2021/11/05 09:35:06;;;;;;;;;4.00;2.33;;;;;12.30;65.89;102276.09;5011109;28;46565;-73
2021/11/05 09:37:31;;;;;;;;;5.33;3.00;;;;;12.34;64.93;102272.69;5011264;28;45823;-73
2021/11/05 09:39:57;;;;;;;;;6.33;2.00;;;;;12.35;65.64;102279.75;5013639;28;51582;-73
2021/11/05 09:42:22;;;;;;;;;3.00;3.00;;;;;12.39;65.39;102284.28;5015459;28;45405;-73
2021/11/05 09:44:48;;;;;;;;;6.00;4.33;;;;;12.43;65.51;102285.28;5014750;28;46146;-73
2021/11/05 09:47:14;;;;;;;;;4.00;3.00;;;;;12.43;64.91;102287.94;5028366;28;60135;-73
2021/11/05 09:49:40;;;;;;;;;9.33;5.00;;;;;12.42;65.12;102281.75;5010504;28;45441;-73
2021/11/05 09:52:06;;;;;;;;;3.00;3.00;;;;;12.38;65.19;102282.50;5019362;28;45533;-72
2021/11/05 09:54:33;;;;;;;;;3.67;2.00;;;;;12.45;65.55;102303.00;5011133;28;46791;-72
2021/11/05 09:56:58;;;;;;;;;4.67;3.33;;;;;12.50;65.18;102301.38;5014379;28;45441;-72
2021/11/05 09:59:24;;;;;;;;;5.67;2.67;;;;;12.58;64.63;102305.13;5016587;28;48158;-72
2021/11/05 10:01:50;;;;;;;;;8.33;2.00;;;;;12.63;65.20;102302.63;5014446;28;45501;-71
2021/11/05 10:04:15;;;;;;;;;5.00;3.00;;;;;12.71;64.92;102308.09;5015765;28;47605;-72
2021/11/05 10:07:08;;;;;;;;;2.33;2.33;;;;;12.79;64.83;102309.19;5011733;28;45410;-72
2021/11/05 10:09:38;;;;;;;;;3.33;3.33;;;;;12.87;64.74;102315.56;5014913;28;45404;-72
2021/11/05 10:12:07;;;;;;;;;3.00;3.00;;;;;12.95;64.61;102315.78;5015350;28;45463;-72
2021/11/05 10:14:33;;;;;;;;;5.33;3.00;;;;;12.98;63.98;102322.03;5016278;28;46589;-72
2021/11/05 10:17:00;;;;;;;;;4.33;1.33;;;;;13.02;64.27;102320.38;5014568;28;50285;-73
2021/11/05 10:19:27;;;;;;;;;4.67;3.67;;;;;13.04;64.33;102322.19;5012322;28;45389;-72
2021/11/05 10:21:52;;;;;;;;;7.33;4.00;;;;;13.05;63.87;102325.78;4997256;28;45626;-72
2021/11/05 10:24:19;;;;;;;;;2.67;2.67;;;;;12.94;63.93;102324.56;5012259;28;45786;-73
2021/11/05 10:26:45;;;;;;;;;3.33;3.33;;;;;12.96;64.04;102328.19;5012212;28;45449;-73
2021/11/05 10:29:27;;;;;;;;;2.67;2.00;;;;;12.95;61.91;102342.31;5015084;28;45340;-73
2021/11/05 10:32:06;;;;;;;;;3.33;3.33;;;;;12.93;63.70;102339.59;5015837;28;45603;-73
2021/11/05 10:34:52;;;;;;;;;5.00;2.00;;;;;12.95;64.04;102344.94;5015940;28;47376;-73
2021/11/05 10:37:32;;;;;;;;;1.00;1.00;;;;;12.92;63.60;102337.81;5030724;28;45477;-73
2021/11/05 10:39:59;;;;;;;;;5.00;3.00;;;;;12.88;64.23;102337.69;5016295;28;45385;-73
2021/11/05 10:42:35;;;;;;;;;4.00;2.00;;;;;12.89;64.05;102353.66;5014411;28;45332;-72
2021/11/05 10:45:21;;;;;;;;;3.00;2.00;;;;;12.88;64.09;102351.81;5015185;28;47348;-72
2021/11/05 10:47:52;;;;;;;;;4.33;2.67;;;;;12.85;63.95;102343.81;5013301;28;45551;-72
2021/11/05 10:50:19;;;;;;;;;4.00;2.00;;;;;12.81;63.91;102339.28;5014752;28;45920;-72
2021/11/05 10:52:59;;;;;;;;;3.00;1.33;;;;;12.76;63.50;102352.41;5012404;28;45378;-72
2021/11/05 10:55:37;;;;;;;;;1.00;1.00;;;;;12.72;64.01;102344.34;5014769;28;47659;-72
2021/11/05 10:58:02;;;;;;;;;2.33;2.00;;;;;12.68;63.62;102350.44;5012044;28;45508;-73
2021/11/05 11:00:30;;;;;;;;;1.00;1.00;;;;;12.64;63.59;102344.16;5015733;28;48355;-73
2021/11/05 11:02:55;;;;;;;;;1.33;1.33;;;;;12.63;63.60;102344.13;5012985;28;45408;-74
2021/11/05 11:05:31;;;;;;;;;6.00;3.00;;;;;12.58;63.70;102341.34;5014527;28;46158;-73
2021/11/05 11:07:56;;;;;;;;;3.00;2.00;;;;;12.57;63.68;102328.94;5011619;28;45507;-73
2021/11/05 11:10:33;;;;;;;;;1.33;1.33;;;;;12.61;63.95;102338.75;5013276;28;45318;-73
2021/11/05 11:12:58;;;;;;;;;4.00;3.00;;;;;12.49;64.26;102318.13;5012628;28;45688;-73
2021/11/05 11:15:37;;;;;;;;;1.00;1.00;;;;;12.64;63.97;102340.59;5116153;22;47234;-72
2021/11/05 11:18:03;;;;;;;;;1.33;1.33;;;;;12.65;64.04;102334.44;4994346;28;45915;-75
2021/11/05 11:20:36;;;;;;;;;4.00;1.67;;;;;12.67;62.90;102333.59;4992450;28;45710;-74